createdAt,value
2018-01-20T00:00:43.137Z,77.9
2018-01-20T00:01:43.152Z,77.9
2018-01-20T00:02:43.140Z,77.81
2018-01-20T00:03:43.183Z,77.9
2018-01-20T00:04:42.893Z,77.81
2018-01-20T00:05:42.894Z,77.81
2018-01-20T00:06:43.172Z,77.9
2018-01-20T00:07:43.184Z,77.71
2018-01-20T00:08:43.205Z,77.71
2018-01-20T00:09:42.926Z,77.71
2018-01-20T00:10:42.970Z,77.71
2018-01-20T00:11:42.956Z,77.71
2018-01-20T00:12:43.249Z,77.81
2018-01-20T00:13:43.265Z,78
2018-01-20T00:14:43.279Z,77.9
2018-01-20T00:15:42.994Z,77.71
2018-01-20T00:16:43.004Z,78
2018-01-20T00:17:43.051Z,77.33
2018-01-20T00:18:43.046Z,77.52
2018-01-20T00:19:43.047Z,77.62
2018-01-20T00:20:43.328Z,77.24
2018-01-20T00:21:43.087Z,77.24
2018-01-20T00:22:43.099Z,77.33
2018-01-20T00:23:43.110Z,77.71
2018-01-20T00:24:43.120Z,78
2018-01-20T00:25:43.102Z,77.14
2018-01-20T00:26:43.121Z,77.71
2018-01-20T00:27:43.434Z,77.71
2018-01-20T00:28:43.446Z,77.52
2018-01-20T00:29:43.155Z,78
2018-01-20T00:30:43.451Z,77.9
2018-01-20T00:31:43.448Z,77.81
2018-01-20T00:32:43.208Z,78
2018-01-20T00:33:43.499Z,77.9
2018-01-20T00:34:43.211Z,78
2018-01-20T00:35:43.539Z,78
2018-01-20T00:36:43.501Z,77.81
2018-01-20T00:37:43.559Z,77.43
2018-01-20T00:38:43.525Z,77.14
2018-01-20T00:39:43.546Z,77.52
2018-01-20T00:40:43.275Z,77.33
2018-01-20T00:41:43.601Z,77.24
2018-01-20T00:42:43.581Z,77.24
2018-01-20T00:43:43.577Z,76.95
2018-01-20T00:44:43.588Z,78
2018-01-20T00:45:43.645Z,77.71
2018-01-20T00:46:43.644Z,77.14
2018-01-20T00:47:43.372Z,77.14
2018-01-20T00:48:43.644Z,77.71
2018-01-20T00:49:43.375Z,77.9
2018-01-20T00:50:43.653Z,77.43
2018-01-20T00:51:43.664Z,77.14
2018-01-20T00:52:43.691Z,77.24
2018-01-20T00:53:43.740Z,77.62
2018-01-20T00:54:43.730Z,76.95
2018-01-20T00:55:43.429Z,77.52
2018-01-20T00:56:43.463Z,77.52
2018-01-20T00:57:43.731Z,77.62
2018-01-20T00:58:43.461Z,77.52
2018-01-20T00:59:43.759Z,77.62
2018-01-20T01:00:43.516Z,77.71
2018-01-20T01:01:43.774Z,77.24
2018-01-20T01:02:43.517Z,77.24
2018-01-20T01:03:43.831Z,77.62
2018-01-20T01:04:43.852Z,77.24
2018-01-20T01:05:43.570Z,77.24
2018-01-20T01:06:43.573Z,77.33
2018-01-20T01:07:43.861Z,77.52
2018-01-20T01:08:43.884Z,77.52
2018-01-20T01:09:43.905Z,77.24
2018-01-20T01:10:43.593Z,77.14
2018-01-20T01:11:43.915Z,77.52
2018-01-20T01:12:43.616Z,77.81
2018-01-20T01:13:43.657Z,77.62
2018-01-20T01:14:43.639Z,77.62
2018-01-20T01:15:43.668Z,76.95
2018-01-20T01:16:43.659Z,77.62
2018-01-20T01:17:43.992Z,77.71
2018-01-20T01:18:43.993Z,77.9
2018-01-20T01:19:43.971Z,76.95
2018-01-20T01:20:44.041Z,77.52
2018-01-20T01:21:43.732Z,77.71
2018-01-20T01:22:43.726Z,77.71
2018-01-20T01:23:43.756Z,77.14
2018-01-20T01:24:44.068Z,77.71
2018-01-20T01:25:43.791Z,77.24
2018-01-20T01:26:44.083Z,77.9
2018-01-20T01:27:44.067Z,77.71
2018-01-20T01:28:44.071Z,77.24
2018-01-20T01:29:44.117Z,77.62
2018-01-20T01:30:44.091Z,76.95
2018-01-20T01:31:43.823Z,77.43
2018-01-20T01:32:44.178Z,77.52
2018-01-20T01:33:44.124Z,77.52
2018-01-20T01:34:44.150Z,77.62
2018-01-20T01:35:44.178Z,77.71
2018-01-20T01:36:44.199Z,77.14
2018-01-20T01:37:44.168Z,77.24
2018-01-20T01:38:43.931Z,77.24
2018-01-20T01:39:43.920Z,77.43
2018-01-20T01:40:43.933Z,77.24
2018-01-20T01:41:44.211Z,77.62
2018-01-20T01:42:44.232Z,76.95
2018-01-20T01:43:44.332Z,77.33
2018-01-20T01:44:43.988Z,77.52
2018-01-20T01:45:44.285Z,77.05
2018-01-20T01:46:44.314Z,77.43
2018-01-20T01:47:43.998Z,77.05
2018-01-20T01:48:44.019Z,77.14
2018-01-20T01:49:44.299Z,77.33
2018-01-20T01:50:44.064Z,77.33
2018-01-20T01:51:44.325Z,76.95
2018-01-20T01:52:44.367Z,76.95
2018-01-20T01:53:44.101Z,77.05
2018-01-20T01:54:44.386Z,77.05
2018-01-20T01:55:44.404Z,77.05
2018-01-20T01:56:44.385Z,76.95
2018-01-20T01:57:44.113Z,77.24
2018-01-20T01:58:44.116Z,77.14
2018-01-20T01:59:44.439Z,77.24
2018-01-20T02:00:44.149Z,77.24
2018-01-20T02:01:44.159Z,77.24
2018-01-20T02:02:44.181Z,77.14
2018-01-20T02:03:44.249Z,77.14
2018-01-20T02:04:44.461Z,76.95
2018-01-20T02:05:44.499Z,77.43
2018-01-20T02:06:44.233Z,77.43
2018-01-20T02:07:44.504Z,77.24
2018-01-20T02:08:44.235Z,77.24
2018-01-20T02:09:44.909Z,76.86
2018-01-20T02:10:44.268Z,76.76
2018-01-20T02:11:44.550Z,76.86
2018-01-20T02:12:44.288Z,77.05
2018-01-20T02:13:44.562Z,76.67
2018-01-20T02:14:44.310Z,77.05
2018-01-20T02:15:44.618Z,76.76
2018-01-20T02:16:44.621Z,76.86
2018-01-20T02:17:44.633Z,76.76
2018-01-20T02:18:44.617Z,76.57
2018-01-20T02:19:44.679Z,76.95
2018-01-20T02:20:44.387Z,76.95
2018-01-20T02:21:44.367Z,76.48
2018-01-20T02:22:44.407Z,76.57
2018-01-20T02:23:44.702Z,76.57
2018-01-20T02:24:44.689Z,76.76
2018-01-20T02:25:44.431Z,76.29
2018-01-20T02:26:44.419Z,76.39
2018-01-20T02:27:44.432Z,76.67
2018-01-20T02:28:44.763Z,76.76
2018-01-20T02:29:44.732Z,76.86
2018-01-20T02:30:44.788Z,76.86
2018-01-20T02:31:44.498Z,76.57
2018-01-20T02:32:44.800Z,76.57
2018-01-20T02:33:44.511Z,76.67
2018-01-20T02:34:44.822Z,76.67
2018-01-20T02:35:44.550Z,76.48
2018-01-20T02:36:44.821Z,76.86
2018-01-20T02:37:44.866Z,76.95
2018-01-20T02:38:44.580Z,76.86
2018-01-20T02:39:44.885Z,76.57
2018-01-20T02:40:44.608Z,76.76
2018-01-20T02:41:44.902Z,77.24
2018-01-20T02:42:44.905Z,77.43
2018-01-20T02:43:44.616Z,77.05
2018-01-20T02:44:44.926Z,77.14
2018-01-20T02:45:44.627Z,77.05
2018-01-20T02:46:44.916Z,77.14
2018-01-20T02:47:44.678Z,76.95
2018-01-20T02:48:44.980Z,77.14
2018-01-20T02:49:44.949Z,77.14
2018-01-20T02:50:44.992Z,76.95
2018-01-20T02:51:45.010Z,77.43
2018-01-20T02:52:45.024Z,76.95
2018-01-20T02:53:44.935Z,77.9
2018-01-20T02:54:44.733Z,77.52
2018-01-20T02:55:45.057Z,77.62
2018-01-20T02:56:44.765Z,77.52
2018-01-20T02:57:45.066Z,77.52
2018-01-20T02:58:44.776Z,76.76
2018-01-20T02:59:45.057Z,76.95
2018-01-20T03:00:45.070Z,77.62
2018-01-20T03:01:45.097Z,77.24
2018-01-20T03:02:44.810Z,77.24
2018-01-20T03:03:45.099Z,77.24
2018-01-20T03:04:45.152Z,77.71
2018-01-20T03:05:44.873Z,77.05
2018-01-20T03:06:45.133Z,77.52
2018-01-20T03:07:45.145Z,77.43
2018-01-20T03:08:45.183Z,76.95
2018-01-20T03:09:44.907Z,77.71
2018-01-20T03:10:45.187Z,76.95
2018-01-20T03:11:44.937Z,76.95
2018-01-20T03:12:44.916Z,77.71
2018-01-20T03:13:45.250Z,77.24
2018-01-20T03:14:45.229Z,77.24
2018-01-20T03:15:45.272Z,77.33
2018-01-20T03:16:45.281Z,77.43
2018-01-20T03:17:44.986Z,77.43
2018-01-20T03:18:45.014Z,77.71
2018-01-20T03:19:45.273Z,77.9
2018-01-20T03:20:45.328Z,78
2018-01-20T03:21:45.034Z,78
2018-01-20T03:22:45.056Z,78
2018-01-20T03:23:45.328Z,77.33
2018-01-20T03:24:45.057Z,77.43
2018-01-20T03:25:45.090Z,77.43
2018-01-20T03:26:45.090Z,77.71
2018-01-20T03:27:45.099Z,77.9
2018-01-20T03:28:45.400Z,77.9
2018-01-20T03:29:45.438Z,78
2018-01-20T03:30:45.128Z,77.9
2018-01-20T03:31:45.404Z,77.71
2018-01-20T03:32:45.423Z,78
2018-01-20T03:33:45.434Z,78
2018-01-20T03:34:45.435Z,77.71
2018-01-20T03:35:45.445Z,77.43
2018-01-20T03:36:45.466Z,77.33
2018-01-20T03:37:45.476Z,77.14
2018-01-20T03:38:45.485Z,77.33
2018-01-20T03:39:45.498Z,78
2018-01-20T03:40:45.220Z,77.14
2018-01-20T03:41:45.550Z,78
2018-01-20T03:42:45.261Z,77.33
2018-01-20T03:43:45.274Z,77.43
2018-01-20T03:44:45.585Z,77.14
2018-01-20T03:45:45.283Z,77.24
2018-01-20T03:46:45.297Z,77.62
2018-01-20T03:47:45.616Z,77.81
2018-01-20T03:48:45.316Z,77.14
2018-01-20T03:49:45.315Z,77.24
2018-01-20T03:50:45.348Z,77.14
2018-01-20T03:51:45.798Z,77.14
2018-01-20T03:52:45.662Z,77.43
2018-01-20T03:53:45.680Z,77.33
2018-01-20T03:54:45.381Z,77.33
2018-01-20T03:55:45.692Z,77.33
2018-01-20T03:56:45.671Z,77.62
2018-01-20T03:57:45.402Z,76.86
2018-01-20T03:58:45.445Z,77.43
2018-01-20T03:59:45.747Z,77.24
2018-01-20T04:00:45.760Z,77.14
2018-01-20T04:01:45.828Z,77.14
2018-01-20T04:02:45.767Z,77.52
2018-01-20T04:03:45.527Z,77.14
2018-01-20T04:04:45.791Z,77.05
2018-01-20T04:05:45.940Z,76.95
2018-01-20T04:06:45.500Z,77.24
2018-01-20T04:07:45.833Z,76.95
2018-01-20T04:08:45.555Z,76.57
2018-01-20T04:09:45.860Z,76.67
2018-01-20T04:10:45.576Z,76.67
2018-01-20T04:11:45.589Z,76.95
2018-01-20T04:12:45.860Z,76.39
2018-01-20T04:13:45.624Z,76.67
2018-01-20T04:14:45.901Z,76.86
2018-01-20T04:15:45.598Z,76.48
2018-01-20T04:16:45.901Z,76.48
2018-01-20T04:17:45.911Z,76.57
2018-01-20T04:18:46.023Z,76.76
2018-01-20T04:19:45.933Z,76.57
2018-01-20T04:20:45.943Z,76.67
2018-01-20T04:21:45.694Z,76.57
2018-01-20T04:22:45.964Z,76.48
2018-01-20T04:23:45.715Z,76.57
2018-01-20T04:24:45.717Z,76.67
2018-01-20T04:25:45.707Z,77.14
2018-01-20T04:26:45.719Z,76.95
2018-01-20T04:27:46.042Z,77.05
2018-01-20T04:28:46.019Z,76.86
2018-01-20T04:29:46.106Z,77.14
2018-01-20T04:30:46.043Z,77.24
2018-01-20T04:31:45.784Z,76.95
2018-01-20T04:32:46.062Z,76.67
2018-01-20T04:33:45.795Z,76.95
2018-01-20T04:34:46.083Z,76.95
2018-01-20T04:35:45.815Z,76.86
2018-01-20T04:36:46.114Z,76.95
2018-01-20T04:37:46.121Z,76.95
2018-01-20T04:38:45.868Z,76.67
2018-01-20T04:39:45.881Z,76.57
2018-01-20T04:40:45.890Z,77.05
2018-01-20T04:41:46.200Z,76.95
2018-01-20T04:42:45.920Z,76.86
2018-01-20T04:43:45.921Z,76.57
2018-01-20T04:44:46.225Z,76.95
2018-01-20T04:45:46.243Z,76.57
2018-01-20T04:46:46.258Z,76.86
2018-01-20T04:47:45.958Z,77.24
2018-01-20T04:48:45.952Z,77.24
2018-01-20T04:49:45.987Z,77.71
2018-01-20T04:50:45.974Z,77.52
2018-01-20T04:51:45.986Z,77.24
2018-01-20T04:52:46.277Z,77.71
2018-01-20T04:53:46.319Z,76.86
2018-01-20T04:54:46.307Z,77.62
2018-01-20T04:55:46.316Z,77.24
2018-01-20T04:56:46.101Z,78
2018-01-20T04:57:46.376Z,77.33
2018-01-20T04:58:46.083Z,78
2018-01-20T04:59:46.382Z,77.43
2018-01-20T05:00:46.598Z,77.9
2018-01-20T05:01:46.165Z,77.71
2018-01-20T05:02:46.136Z,77.9
2018-01-20T05:03:46.114Z,77.71
2018-01-20T05:04:46.453Z,77.33
2018-01-20T05:05:46.451Z,77.52
2018-01-20T05:06:46.216Z,77.05
2018-01-20T05:07:46.480Z,77.14
2018-01-20T05:08:46.482Z,77.71
2018-01-20T05:09:46.489Z,77.9
2018-01-20T05:10:46.512Z,77.9
2018-01-20T05:11:46.251Z,77.9
2018-01-20T05:12:46.507Z,77.71
2018-01-20T05:13:46.542Z,77.9
2018-01-20T05:14:46.511Z,77.9
2018-01-20T05:15:46.533Z,77.81
2018-01-20T05:16:46.273Z,77.24
2018-01-20T05:17:46.847Z,77.71
2018-01-20T05:18:46.305Z,77.14
2018-01-20T05:19:46.294Z,77.71
2018-01-20T05:20:46.585Z,77.24
2018-01-20T05:21:46.680Z,77.05
2018-01-20T05:22:46.316Z,77.52
2018-01-20T05:23:46.711Z,77.05
2018-01-20T05:24:46.663Z,77.24
2018-01-20T05:25:46.651Z,77.14
2018-01-20T05:26:46.687Z,77.05
2018-01-20T05:27:46.692Z,76.95
2018-01-20T05:28:46.397Z,77.24
2018-01-20T05:29:46.409Z,77.24
2018-01-20T05:30:46.604Z,77.24
2018-01-20T05:31:46.739Z,77.14
2018-01-20T05:32:46.424Z,77.62
2018-01-20T05:33:46.719Z,77.33
2018-01-20T05:34:46.746Z,77.71
2018-01-20T05:35:46.781Z,77.14
2018-01-20T05:36:46.745Z,77.24
2018-01-20T05:37:46.515Z,76.86
2018-01-20T05:38:46.766Z,76.95
2018-01-20T05:39:46.830Z,76.95
2018-01-20T05:40:46.523Z,77.62
2018-01-20T05:41:46.550Z,77.14
2018-01-20T05:42:46.553Z,77.52
2018-01-20T05:43:46.551Z,77.52
2018-01-20T05:44:46.841Z,77.24
2018-01-20T05:45:46.885Z,77.43
2018-01-20T05:46:46.604Z,77.9
2018-01-20T05:47:46.905Z,77.9
2018-01-20T05:48:46.646Z,77.33
2018-01-20T05:49:46.895Z,77.24
2018-01-20T05:50:46.639Z,77.43
2018-01-20T05:51:46.949Z,77.14
2018-01-20T05:52:46.647Z,77.43
2018-01-20T05:53:46.970Z,77.62
2018-01-20T05:54:46.939Z,77.9
2018-01-20T05:55:46.671Z,77.9
2018-01-20T05:56:46.710Z,77.62
2018-01-20T05:57:46.700Z,77.62
2018-01-20T05:58:46.993Z,77.9
2018-01-20T05:59:46.723Z,77.9
2018-01-20T06:00:46.745Z,77.71
2018-01-20T06:01:47.015Z,77.9
2018-01-20T06:02:47.061Z,77.81
2018-01-20T06:03:46.780Z,77.9
2018-01-20T06:04:47.090Z,77.71
2018-01-20T06:05:46.799Z,77.81
2018-01-20T06:06:46.785Z,77.71
2018-01-20T06:07:46.830Z,77.62
2018-01-20T06:08:47.086Z,77.71
2018-01-20T06:09:46.843Z,77.71
2018-01-20T06:10:46.829Z,77.71
2018-01-20T06:11:46.869Z,77.71
2018-01-20T06:12:47.146Z,77.81
2018-01-20T06:13:46.894Z,77.81
2018-01-20T06:14:47.162Z,77.62
2018-01-20T06:15:46.913Z,77.71
2018-01-20T06:16:47.183Z,77.62
2018-01-20T06:17:46.925Z,77.33
2018-01-20T06:18:46.947Z,77.52
2018-01-20T06:19:47.248Z,77.33
2018-01-20T06:20:46.946Z,77.9
2018-01-20T06:21:47.272Z,77.71
2018-01-20T06:22:46.957Z,77.9
2018-01-20T06:23:47.288Z,77.9
2018-01-20T06:24:47.268Z,77.71
2018-01-20T06:25:47.019Z,77.62
2018-01-20T06:26:47.008Z,77.52
2018-01-20T06:27:47.058Z,77.9
2018-01-20T06:28:47.331Z,78.09
2018-01-20T06:29:47.322Z,78.09
2018-01-20T06:30:47.353Z,77.9
2018-01-20T06:31:47.091Z,78.09
2018-01-20T06:32:47.353Z,78.09
2018-01-20T06:33:47.096Z,78.09
2018-01-20T06:34:47.093Z,78.09
2018-01-20T06:35:47.384Z,77.81
2018-01-20T06:36:47.105Z,77.9
2018-01-20T06:37:47.125Z,77.9
2018-01-20T06:38:47.129Z,77.9
2018-01-20T06:39:47.140Z,78
2018-01-20T06:40:47.475Z,77.9
2018-01-20T06:41:47.439Z,77.9
2018-01-20T06:42:47.608Z,78
2018-01-20T06:43:47.471Z,78.19
2018-01-20T06:44:47.503Z,78
2018-01-20T06:45:47.221Z,77.81
2018-01-20T06:46:47.490Z,77.9
2018-01-20T06:47:47.552Z,78.28
2018-01-20T06:48:47.548Z,78.09
2018-01-20T06:49:47.564Z,78.19
2018-01-20T06:50:47.570Z,78
2018-01-20T06:51:47.558Z,78.19
2018-01-20T06:52:47.336Z,78.19
2018-01-20T06:53:47.604Z,78.38
2018-01-20T06:54:47.824Z,78
2018-01-20T06:55:47.619Z,78.09
2018-01-20T06:56:47.646Z,78.38
2018-01-20T06:57:47.650Z,77.62
2018-01-20T06:58:47.339Z,78
2018-01-20T06:59:47.640Z,78
2018-01-20T07:00:47.653Z,78
2018-01-20T07:01:47.656Z,78
2018-01-20T07:02:47.464Z,78.19
2018-01-20T07:03:47.423Z,78.47
2018-01-20T07:04:47.720Z,78.19
2018-01-20T07:05:47.434Z,78.19
2018-01-20T07:06:47.455Z,78.19
2018-01-20T07:07:47.759Z,77.9
2018-01-20T07:08:47.458Z,78.47
2018-01-20T07:09:47.489Z,78.47
2018-01-20T07:10:47.746Z,78.19
2018-01-20T07:11:47.479Z,78.38
2018-01-20T07:12:47.779Z,78.47
2018-01-20T07:13:47.813Z,78.28
2018-01-20T07:14:47.838Z,78.47
2018-01-20T07:15:47.519Z,78.28
2018-01-20T07:16:47.542Z,78.28
2018-01-20T07:17:47.561Z,78
2018-01-20T07:18:47.551Z,78.09
2018-01-20T07:19:47.887Z,78.09
2018-01-20T07:20:47.575Z,78.75
2018-01-20T07:21:47.596Z,78.75
2018-01-20T07:22:47.606Z,77.9
2018-01-20T07:23:47.896Z,77.9
2018-01-20T07:24:47.621Z,78.09
2018-01-20T07:25:47.948Z,78
2018-01-20T07:26:47.950Z,78.28
2018-01-20T07:27:47.681Z,78.28
2018-01-20T07:28:47.972Z,78.75
2018-01-20T07:29:48.014Z,78.09
2018-01-20T07:30:48.011Z,78.09
2018-01-20T07:31:48.002Z,78.75
2018-01-20T07:32:48.024Z,78.75
2018-01-20T07:33:47.723Z,78.19
2018-01-20T07:34:47.756Z,78.85
2018-01-20T07:35:48.031Z,78.95
2018-01-20T07:36:47.769Z,78.28
2018-01-20T07:37:47.782Z,77.9
2018-01-20T07:38:48.079Z,78.28
2018-01-20T07:39:48.058Z,78.09
2018-01-20T07:40:47.821Z,78.09
2018-01-20T07:41:48.082Z,78.09
2018-01-20T07:42:48.121Z,78.19
2018-01-20T07:43:48.123Z,78.09
2018-01-20T07:44:48.145Z,78
2018-01-20T07:45:47.851Z,78.09
2018-01-20T07:46:48.182Z,78.19
2018-01-20T07:47:48.178Z,78.09
2018-01-20T07:48:48.186Z,78.09
2018-01-20T07:49:48.177Z,78.95
2018-01-20T07:50:47.905Z,78
2018-01-20T07:51:48.230Z,78.09
2018-01-20T07:52:48.210Z,78.09
2018-01-20T07:53:47.937Z,78.19
2018-01-20T07:54:48.272Z,78.19
2018-01-20T07:55:48.273Z,78.19
2018-01-20T07:56:47.983Z,78.19
2018-01-20T07:57:48.263Z,78.09
2018-01-20T07:58:48.264Z,78.28
2018-01-20T07:59:47.992Z,78.09
2018-01-20T08:00:48.038Z,78
2018-01-20T08:01:48.332Z,78.09
2018-01-20T08:02:48.025Z,78
2018-01-20T08:03:48.037Z,78.19
2018-01-20T08:04:48.331Z,78.47
2018-01-20T08:05:48.092Z,78.28
2018-01-20T08:06:48.080Z,78.47
2018-01-20T08:07:48.364Z,78.19
2018-01-20T08:08:48.121Z,78.19
2018-01-20T08:09:48.122Z,78.19
2018-01-20T08:10:48.150Z,77.9
2018-01-20T08:11:48.132Z,78.09
2018-01-20T08:12:48.459Z,78.19
2018-01-20T08:13:48.456Z,78.19
2018-01-20T08:14:48.155Z,78.19
2018-01-20T08:15:48.448Z,78.09
2018-01-20T08:16:48.502Z,78.19
2018-01-20T08:17:48.482Z,78.19
2018-01-20T08:18:48.216Z,78.19
2018-01-20T08:19:48.243Z,77.9
2018-01-20T08:20:48.516Z,78.09
2018-01-20T08:21:48.543Z,78.09
2018-01-20T08:22:48.522Z,78.09
2018-01-20T08:23:48.273Z,78.75
2018-01-20T08:24:48.573Z,78.75
2018-01-20T08:25:48.565Z,78.85
2018-01-20T08:26:48.315Z,78.28
2018-01-20T08:27:48.578Z,78.47
2018-01-20T08:28:48.328Z,78.56
2018-01-20T08:29:48.628Z,78.75
2018-01-20T08:30:48.358Z,78.85
2018-01-20T08:31:48.667Z,78
2018-01-20T08:32:48.672Z,78.47
2018-01-20T08:33:48.372Z,78.38
2018-01-20T08:34:48.694Z,78.47
2018-01-20T08:35:48.661Z,78.09
2018-01-20T08:36:48.414Z,78.47
2018-01-20T08:37:48.419Z,78.47
2018-01-20T08:38:48.425Z,78.47
2018-01-20T08:39:48.743Z,78.47
2018-01-20T08:40:48.754Z,78.75
2018-01-20T08:41:48.738Z,78.09
2018-01-20T08:42:48.784Z,78.75
2018-01-20T08:43:48.501Z,78.38
2018-01-20T08:44:48.494Z,78.66
2018-01-20T08:45:48.781Z,78.47
2018-01-20T08:46:48.791Z,78.28
2018-01-20T08:47:48.807Z,78.47
2018-01-20T08:48:48.524Z,78.28
2018-01-20T08:49:48.825Z,78.38
2018-01-20T08:50:48.869Z,78.56
2018-01-20T08:51:48.577Z,78.47
2018-01-20T08:52:48.865Z,78.56
2018-01-20T08:53:48.876Z,78.47
2018-01-20T08:54:48.910Z,78.47
2018-01-20T08:55:48.895Z,78.47
2018-01-20T08:56:48.938Z,78.19
2018-01-20T08:57:48.622Z,78.47
2018-01-20T08:58:48.657Z,78.09
2018-01-20T08:59:48.965Z,78.47
2018-01-20T09:00:48.677Z,78.28
2018-01-20T09:01:48.993Z,78.66
2018-01-20T09:02:48.709Z,78.28
2018-01-20T09:03:49.002Z,78.47
2018-01-20T09:04:48.991Z,78.7
2018-01-20T09:05:49.021Z,78.61
2018-01-20T09:06:48.730Z,78.32
2018-01-20T09:07:48.762Z,78.32
2018-01-20T09:08:48.766Z,78.23
2018-01-20T09:09:49.035Z,78.32
2018-01-20T09:10:49.094Z,78.8
2018-01-20T09:11:48.807Z,78.61
2018-01-20T09:12:49.108Z,78.42
2018-01-20T09:13:49.116Z,78.23
2018-01-20T09:14:49.087Z,78.23
2018-01-20T09:15:48.842Z,78.13
2018-01-20T09:16:49.155Z,78.13
2018-01-20T09:17:49.153Z,78.32
2018-01-20T09:18:49.217Z,78.13
2018-01-20T09:19:49.148Z,78.23
2018-01-20T09:20:49.202Z,78.23
2018-01-20T09:21:48.907Z,78.32
2018-01-20T09:22:49.193Z,78.32
2018-01-20T09:23:48.970Z,78.42
2018-01-20T09:24:48.920Z,78.13
2018-01-20T09:25:49.222Z,78.32
2018-01-20T09:26:48.943Z,78.42
2018-01-20T09:27:49.234Z,78.03
2018-01-20T09:28:49.243Z,78.42
2018-01-20T09:29:49.010Z,78.23
2018-01-20T09:30:49.018Z,78.03
2018-01-20T09:31:49.290Z,78.03
2018-01-20T09:32:49.040Z,78.32
2018-01-20T09:33:49.344Z,78.23
2018-01-20T09:34:49.357Z,78.13
2018-01-20T09:35:49.324Z,77.94
2018-01-20T09:36:49.366Z,78.13
2018-01-20T09:37:49.076Z,78.13
2018-01-20T09:38:49.078Z,77.84
2018-01-20T09:39:49.117Z,78.13
2018-01-20T09:40:49.378Z,77.66
2018-01-20T09:41:49.443Z,77.66
2018-01-20T09:42:49.154Z,77.75
2018-01-20T09:43:49.427Z,77.94
2018-01-20T09:44:49.436Z,77.94
2018-01-20T09:45:49.466Z,77.94
2018-01-20T09:46:49.198Z,77.94
2018-01-20T09:47:49.179Z,77.94
2018-01-20T09:48:49.502Z,78.08
2018-01-20T09:49:49.514Z,78.08
2018-01-20T09:50:49.586Z,77.75
2018-01-20T09:51:49.229Z,77.22
2018-01-20T09:52:49.235Z,77.28
2018-01-20T09:53:49.527Z,76.93
2018-01-20T09:54:49.538Z,77.7
2018-01-20T09:55:49.558Z,76.99
2018-01-20T09:56:49.602Z,76.93
2018-01-20T09:57:49.323Z,77.03
2018-01-20T09:58:49.312Z,77.56
2018-01-20T09:59:49.594Z,77.75
2018-01-20T10:00:49.327Z,78.03
2018-01-20T10:01:49.622Z,77.41
2018-01-20T10:02:49.644Z,77.94
2018-01-20T10:03:49.643Z,78.03
2018-01-20T10:04:49.371Z,77.75
2018-01-20T10:05:49.413Z,77.94
2018-01-20T10:06:49.680Z,77.94
2018-01-20T10:07:49.426Z,77.79
2018-01-20T10:08:49.697Z,77.98
2018-01-20T10:09:49.708Z,77.94
2018-01-20T10:10:49.736Z,77.75
2018-01-20T10:11:49.774Z,77.75
2018-01-20T10:12:49.782Z,77.79
2018-01-20T10:13:49.473Z,77.98
2018-01-20T10:14:49.487Z,77.84
2018-01-20T10:15:49.518Z,77.6
2018-01-20T10:16:49.544Z,77.41
2018-01-20T10:17:49.551Z,77.31
2018-01-20T10:18:49.852Z,77.31
2018-01-20T10:19:49.854Z,77.89
2018-01-20T10:20:49.588Z,77.98
2018-01-20T10:21:49.597Z,77.98
2018-01-20T10:22:49.609Z,78.08
2018-01-20T10:23:49.587Z,77.98
2018-01-20T10:24:49.880Z,77.98
2018-01-20T10:25:49.610Z,77.79
2018-01-20T10:26:49.940Z,77.98
2018-01-20T10:27:49.938Z,77.98
2018-01-20T10:28:49.646Z,78.08
2018-01-20T10:29:49.668Z,77.89
2018-01-20T10:30:50.002Z,77.79
2018-01-20T10:31:49.998Z,77.79
2018-01-20T10:32:49.977Z,77.89
2018-01-20T10:33:50.054Z,77.79
2018-01-20T10:34:49.755Z,77.31
2018-01-20T10:35:50.019Z,77.12
2018-01-20T10:36:50.034Z,77.31
2018-01-20T10:37:50.042Z,77.22
2018-01-20T10:38:49.793Z,77.7
2018-01-20T10:39:50.088Z,77.7
2018-01-20T10:40:50.064Z,77.79
2018-01-20T10:41:49.806Z,77.7
2018-01-20T10:42:50.104Z,77.31
2018-01-20T10:43:50.142Z,77.41
2018-01-20T10:44:50.143Z,77.6
2018-01-20T10:45:50.142Z,77.22
2018-01-20T10:46:49.880Z,77.41
2018-01-20T10:47:49.940Z,77.51
2018-01-20T10:48:50.162Z,77.03
2018-01-20T10:49:50.331Z,77.03
2018-01-20T10:50:50.222Z,77.31
2018-01-20T10:51:50.241Z,77.12
2018-01-20T10:52:49.979Z,77.12
2018-01-20T10:53:49.968Z,76.75
2018-01-20T10:54:49.965Z,76.75
2018-01-20T10:55:49.970Z,77.12
2018-01-20T10:56:50.006Z,76.65
2018-01-20T10:57:50.004Z,76.56
2018-01-20T10:58:50.316Z,76.65
2018-01-20T10:59:50.370Z,76.27
2018-01-20T11:00:50.030Z,76.37
2018-01-20T11:01:50.345Z,76.46
2018-01-20T11:02:50.321Z,76.27
2018-01-20T11:03:50.376Z,76.18
2018-01-20T11:04:50.375Z,75.79
2018-01-20T11:05:50.390Z,75.89
2018-01-20T11:06:50.426Z,76.27
2018-01-20T11:07:50.395Z,76.37
2018-01-20T11:08:50.124Z,76.27
2018-01-20T11:09:50.403Z,76.37
2018-01-20T11:10:50.136Z,76.46
2018-01-20T11:11:50.459Z,76.37
2018-01-20T11:12:50.476Z,76.56
2018-01-20T11:13:50.202Z,76.56
2018-01-20T11:14:50.499Z,75.7
2018-01-20T11:15:50.507Z,75.99
2018-01-20T11:16:50.523Z,76.27
2018-01-20T11:17:50.530Z,75.6
2018-01-20T11:18:50.262Z,75.51
2018-01-20T11:19:50.244Z,75.6
2018-01-20T11:20:50.546Z,75.51
2018-01-20T11:21:50.562Z,75.51
2018-01-20T11:22:50.559Z,75.13
2018-01-20T11:23:50.601Z,75.32
2018-01-20T11:24:50.483Z,75.23
2018-01-20T11:25:50.641Z,75.23
2018-01-20T11:26:50.683Z,75.17
2018-01-20T11:27:50.349Z,75.26
2018-01-20T11:28:50.640Z,75.45
2018-01-20T11:29:50.725Z,75.45
2018-01-20T11:30:50.374Z,75.45
2018-01-20T11:31:50.395Z,75.26
2018-01-20T11:32:50.409Z,75.17
2018-01-20T11:33:50.409Z,74.98
2018-01-20T11:34:50.453Z,75.17
2018-01-20T11:35:50.464Z,74.41
2018-01-20T11:36:50.741Z,74.6
2018-01-20T11:37:50.735Z,74.69
2018-01-20T11:38:50.470Z,74.6
2018-01-20T11:39:50.926Z,74.51
2018-01-20T11:40:50.804Z,74.69
2018-01-20T11:41:50.514Z,74.69
2018-01-20T11:42:50.801Z,74.41
2018-01-20T11:43:50.531Z,74.69
2018-01-20T11:44:50.564Z,74.6
2018-01-20T11:45:50.835Z,74.22
2018-01-20T11:46:50.887Z,74.12
2018-01-20T11:47:50.601Z,74.03
2018-01-20T11:48:50.907Z,74.31
2018-01-20T11:49:50.887Z,73.93
2018-01-20T11:50:50.648Z,74.22
2018-01-20T11:51:50.625Z,74.03
2018-01-20T11:52:50.648Z,74.12
2018-01-20T11:53:50.939Z,73.93
2018-01-20T11:54:50.977Z,74.12
2018-01-20T11:55:50.675Z,74.22
2018-01-20T11:56:50.976Z,74.22
2018-01-20T11:57:51.021Z,73.74
2018-01-20T11:58:50.743Z,74.12
2018-01-20T11:59:51.003Z,74.03
2018-01-20T12:00:51.016Z,74.03
2018-01-20T12:01:50.780Z,73.74
2018-01-20T12:02:50.791Z,73.93
2018-01-20T12:03:50.783Z,74.03
2018-01-20T12:04:51.106Z,73.93
2018-01-20T12:05:51.111Z,74.03
2018-01-20T12:06:51.123Z,73.93
2018-01-20T12:07:51.145Z,74.03
2018-01-20T12:08:50.839Z,74.12
2018-01-20T12:09:51.141Z,74.51
2018-01-20T12:10:50.875Z,74.41
2018-01-20T12:11:50.904Z,74.41
2018-01-20T12:12:50.885Z,74.16
2018-01-20T12:13:50.915Z,74.07
2018-01-20T12:14:50.908Z,73.74
2018-01-20T12:15:51.242Z,73.27
2018-01-20T12:16:51.229Z,73.18
2018-01-20T12:17:51.240Z,73.4
2018-01-20T12:18:51.260Z,73.46
2018-01-20T12:19:50.970Z,73.3
2018-01-20T12:20:51.303Z,73.27
2018-01-20T12:21:51.283Z,73.69
2018-01-20T12:22:51.287Z,73.18
2018-01-20T12:23:51.389Z,73.4
2018-01-20T12:24:51.356Z,73.02
2018-01-20T12:25:51.358Z,73.4
2018-01-20T12:26:51.369Z,73.3
2018-01-20T12:27:51.089Z,73.69
2018-01-20T12:28:51.406Z,72.64
2018-01-20T12:29:51.414Z,72.74
2018-01-20T12:30:51.139Z,72.83
2018-01-20T12:31:51.481Z,73.02
2018-01-20T12:32:51.412Z,72.55
2018-01-20T12:33:51.166Z,72.64
2018-01-20T12:34:51.166Z,72.35
2018-01-20T12:35:51.167Z,72.16
2018-01-20T12:36:51.217Z,71.97
2018-01-20T12:37:51.516Z,71.78
2018-01-20T12:38:51.527Z,72.07
2018-01-20T12:39:51.217Z,72.16
2018-01-20T12:40:51.233Z,72.07
2018-01-20T12:41:51.274Z,72.07
2018-01-20T12:42:51.583Z,72.16
2018-01-20T12:43:51.561Z,72.07
2018-01-20T12:44:51.590Z,72.16
2018-01-20T12:45:51.595Z,72.07
2018-01-20T12:46:51.586Z,72.16
2018-01-20T12:47:51.604Z,72.26
2018-01-20T12:48:51.335Z,71.88
2018-01-20T12:49:51.380Z,71.69
2018-01-20T12:50:51.356Z,71.59
2018-01-20T12:51:51.649Z,71.41
2018-01-20T12:52:51.411Z,71.12
2018-01-20T12:53:51.424Z,71.59
2018-01-20T12:54:51.824Z,71.31
2018-01-20T12:55:51.709Z,71.31
2018-01-20T12:56:51.442Z,71.22
2018-01-20T12:57:51.729Z,71.5
2018-01-20T12:58:51.460Z,71.69